Latest Weather Observations for Barrow Island

IDW60801

Issued at 9:43 am WST Thursday 21 February 2019 (issued every 10 minutes, with the page automatically refreshed every 10 minutes)

About weather observations | Map of weather stations | Latest weather observations for WA | Other Formats
Station Details ID: 005094 Name: BARROW ISLAND AIRPORT Lat: -20.87 Lon: 115.41 Height: 6.4 m
Data from the previous 72 hours. | See also: Recent months at Barrow Island
Date/Time
WST
Temp
°C
App
Temp
°C
Dew
Point
°C
Rel
Hum
%
Delta-T
°C
Wind Press
QNH
hPa
Press
MSL
hPa
Rain since
9am
mm
Dir  Spd
km/h
Gust
km/h
Spd
kts
Gust
kts
21/09:30am 30.0 32.6 24.6 73 3.8 SSE 19 20 10 11 1012.3 - 0.0
21/09:00am 29.7 32.4 25.0 76 3.3 S 20 22 11 12 1012.2 1012.2 0.0
21/08:30am 29.0 31.6 24.6 77 3.1 S 19 22 10 12 1012.2 - 0.0
21/08:00am 28.4 31.1 24.2 78 2.9 S 17 20 9 11 1012.0 - 0.0
21/07:30am 27.2 31.6 24.5 85 1.9 S 9 17 5 9 1011.8 - 0.0
21/07:00am 25.1 30.5 23.3 90 1.2 CALM 0 4 0 2 1011.5 - 0.0
21/06:30am 24.0 27.7 22.3 90 1.1 NW 6 9 3 5 1011.3 - 0.0
21/06:00am 24.0 27.6 22.3 90 1.1 NNW 7 7 4 4 1011.1 1011.1 0.0
21/05:30am 23.8 27.3 22.1 90 1.1 WNW 7 11 4 6 1010.8 - 0.0
21/05:00am 24.2 27.1 22.5 90 1.1 WNW 11 13 6 7 1010.8 - 0.0
21/04:30am 24.5 27.5 22.7 90 1.2 NNW 11 13 6 7 1010.7 - 0.0
21/04:00am 25.0 27.9 23.2 90 1.2 N 13 15 7 8 1010.8 - 0.0
21/03:30am 24.9 28.1 23.1 90 1.2 NW 11 15 6 8 1010.6 - 0.0
21/03:00am 24.8 27.9 22.9 89 1.3 N 11 15 6 8 1010.9 1010.9 0.0
21/02:30am 25.0 27.9 23.1 89 1.3 N 13 17 7 9 1010.8 - 0.0
21/02:00am 24.9 28.1 23.0 89 1.3 NNW 11 13 6 7 1010.9 - 0.0
21/01:30am 25.0 28.1 22.9 88 1.4 NNW 11 15 6 8 1010.9 - 0.0
21/01:00am 25.3 28.2 23.2 88 1.4 N 13 17 7 9 1011.4 - 0.0
21/12:30am 25.2 28.3 22.9 87 1.6 N 11 15 6 8 1011.5 - 0.0
21/12:00am 25.3 28.4 22.8 86 1.7 NNW 11 17 6 9 1011.5 1011.5 0.0
 
Date/Time
WST
Temp
°C
App
Temp
°C
Dew
Point
°C
Rel
Hum
%
Delta-T
°C
Wind Press
QNH
hPa
Press
MSL
hPa
Rain since
9am
mm
Dir  Spd
km/h
Gust
km/h
Spd
kts
Gust
kts
20/11:30pm 25.5 28.2 22.8 85 1.8 N 13 17 7 9 1011.6 - 0.0
20/11:00pm 26.0 28.3 23.5 86 1.7 ENE 17 20 9 11 1012.3 - 0.0
20/10:30pm 25.3 27.7 22.2 83 2.1 NNW 13 15 7 8 1011.3 - 0.0
20/10:00pm 25.8 28.4 22.7 83 2.1 N 13 17 7 9 1011.5 - 0.0
20/09:30pm 26.2 30.3 22.9 82 2.2 NNW 6 7 3 4 1011.6 - 0.0
20/09:00pm 26.3 29.9 23.0 82 2.2 NNW 9 11 5 6 1010.9 1010.9 0.0
20/08:30pm 26.6 29.7 22.9 80 2.5 NNW 11 13 6 7 1010.7 - 0.0
20/08:00pm 27.0 29.7 22.8 78 2.8 NW 13 15 7 8 1010.1 - 0.0
20/07:30pm 27.6 30.0 22.3 73 3.6 NW 13 17 7 9 1009.6 - 0.0
20/07:00pm 28.4 30.3 21.4 66 4.7 WNW 13 15 7 8 1009.2 - 0.0
20/06:30pm 29.5 30.6 20.4 58 6.0 WNW 15 19 8 10 1008.9 - 0.0
20/06:00pm 30.6 30.4 20.5 54 6.7 W 22 28 12 15 1008.4 1008.4 0.0
20/05:30pm 31.2 29.9 19.9 51 7.4 W 26 32 14 17 1008.4 - 0.0
20/05:00pm 32.0 31.0 19.6 47 8.2 WSW 24 28 13 15 1008.4 - 0.0
20/04:30pm 32.2 32.6 21.7 54 7.1 WSW 22 28 12 15 1008.4 - 0.0
20/04:00pm 32.7 32.7 20.9 49 7.9 WSW 22 28 12 15 1008.5 - 0.0
20/03:30pm 32.8 33.2 21.0 50 7.9 WSW 20 26 11 14 1008.7 - 0.0
20/03:00pm 32.0 33.0 21.8 54 6.9 SSW 19 24 10 13 1008.8 1008.8 0.0
20/02:30pm 32.2 32.4 20.5 50 7.8 SW 20 24 11 13 1009.1 - 0.0
20/02:00pm 30.9 31.8 21.9 58 6.1 SSW 20 24 11 13 1009.5 - 0.0
20/01:30pm 31.0 32.3 22.6 61 5.7 SSW 20 24 11 13 1009.7 - 0.0
20/01:00pm 31.3 32.1 21.8 57 6.4 SSW 20 22 11 12 1010.0 - 0.0
20/12:30pm 31.0 31.4 20.9 55 6.7 SSW 20 22 11 12 1010.4 - 0.0
20/12:00pm 30.5 31.2 21.6 59 6.0 SSW 20 24 11 13 1010.6 1010.6 0.0
20/11:30am 30.5 31.1 21.3 58 6.2 SSW 20 24 11 13 1011.2 - 0.0
20/11:00am 30.2 30.4 21.3 59 6.0 SSW 22 24 12 13 1011.5 - 0.0
20/10:30am 29.3 29.2 20.7 59 5.7 SSW 22 28 12 15 1011.6 - 0.0
20/10:00am 29.5 29.5 20.9 60 5.7 SSW 22 26 12 14 1011.5 - 0.0
20/09:30am 29.3 29.2 20.7 59 5.7 SSW 22 28 12 15 1011.7 - 0.0
20/09:00am 28.7 28.1 21.2 64 5.0 SSW 26 30 14 16 1011.4 1011.4 0.0
20/08:30am 28.7 28.8 21.2 64 5.0 SSW 22 26 12 14 1011.4 - 0.0
20/08:00am 28.1 27.8 21.1 65 4.7 SSW 24 30 13 16 1011.3 - 0.0
20/07:30am 27.7 27.6 21.5 69 4.1 SSW 24 26 13 14 1011.2 - 0.0
20/07:00am 27.1 27.2 21.8 73 3.5 SSW 24 28 13 15 1011.1 - 0.0
20/06:30am 26.8 27.0 21.3 72 3.7 SSW 22 28 12 15 1010.8 - 0.0
20/06:00am 26.7 26.7 21.7 74 3.3 SSW 24 28 13 15 1010.3 1010.3 0.0
20/05:30am 26.7 26.3 21.7 74 3.3 SSW 26 30 14 16 1009.9 - 0.0
20/05:00am 26.6 25.7 22.2 77 3.0 SW 30 35 16 19 1009.1 - 0.0
20/04:30am 26.5 25.6 22.1 77 3.0 SW 30 33 16 18 1009.0 - 0.0
20/04:00am 26.7 26.5 22.8 79 2.6 SW 28 33 15 18 1009.0 - 0.0
20/03:30am 26.8 26.6 22.8 79 2.7 SW 28 32 15 17 1009.1 - 0.0
20/03:00am 26.9 27.5 23.4 81 2.4 SW 26 32 14 17 1009.2 1009.2 0.0
20/02:30am 27.0 27.6 23.5 81 2.4 SW 26 32 14 17 1009.4 - 0.0
20/02:00am 27.1 26.8 23.3 80 2.6 SW 30 35 16 19 1009.4 - 0.0
20/01:30am 27.2 26.5 23.2 79 2.7 SW 32 37 17 20 1009.6 - 0.0
20/01:00am 27.2 28.3 23.0 78 2.9 SW 22 30 12 16 1010.1 - 0.0
20/12:30am 27.4 29.3 22.8 76 3.1 SW 17 22 9 12 1010.6 - 0.0
20/12:00am 27.8 28.1 23.0 75 3.3 SW 26 32 14 17 1010.5 1010.5 0.0
 
Date/Time
WST
Temp
°C
App
Temp
°C
Dew
Point
°C
Rel
Hum
%
Delta-T
°C
Wind Press
QNH
hPa
Press
MSL
hPa
Rain since
9am
mm
Dir  Spd
km/h
Gust
km/h
Spd
kts
Gust
kts
19/11:30pm 27.9 29.3 22.6 73 3.6 SSW 19 30 10 16 1010.5 - 0.0
19/11:00pm 27.9 27.1 22.4 72 3.7 WSW 30 35 16 19 1010.2 - 0.0
19/10:30pm 28.3 27.5 22.3 70 4.1 WSW 30 37 16 20 1010.0 - 0.0
19/10:00pm 28.4 27.4 21.9 68 4.4 WSW 30 37 16 20 1009.5 - 0.0
19/09:30pm 28.2 27.2 22.0 69 4.2 WSW 30 41 16 22 1009.2 - 0.0
19/09:00pm 27.6 27.4 22.8 75 3.3 W 28 37 15 20 1009.1 1009.1 0.0
19/08:30pm 27.3 27.3 23.1 78 2.9 W 28 32 15 17 1008.9 - 0.0
19/08:00pm 27.3 27.0 23.3 79 2.7 W 30 37 16 20 1008.6 - 0.0
19/07:30pm 27.4 26.7 23.2 78 2.9 W 32 39 17 21 1008.3 - 0.0
19/07:00pm 27.7 26.8 22.9 75 3.3 W 32 39 17 21 1008.1 - 0.0
19/06:30pm 28.2 27.2 22.7 72 3.7 W 32 39 17 21 1007.7 - 0.0
19/06:00pm 29.1 27.9 22.6 68 4.4 W 33 41 18 22 1007.4 1007.4 0.0
19/05:30pm 29.7 27.9 22.2 64 5.1 W 35 43 19 23 1007.3 - 0.0
19/05:00pm 31.1 29.4 22.4 60 5.9 W 35 44 19 24 1007.4 - 0.0
19/04:30pm 31.3 29.3 21.8 57 6.4 W 35 43 19 23 1007.5 - 0.0
19/04:00pm 31.2 28.0 20.2 52 7.3 WSW 37 44 20 24 1007.6 - 0.0
19/03:30pm 30.8 28.2 20.7 55 6.7 WSW 35 43 19 23 1008.0 - 0.0
19/03:00pm 31.2 30.0 22.2 58 6.1 W 32 39 17 21 1008.2 1008.2 0.0
19/02:30pm 30.7 29.2 22.0 59 5.9 W 33 41 18 22 1008.3 - 0.0
19/02:00pm 31.6 31.3 22.6 59 6.2 WSW 28 35 15 19 1008.4 - 0.0
19/01:30pm 31.0 30.0 22.0 58 6.1 WSW 30 37 16 20 1008.7 - 0.0
19/01:00pm 30.6 29.5 21.7 59 6.0 WSW 30 37 16 20 1009.2 - 0.0
19/12:30pm 31.0 30.3 21.8 58 6.2 WSW 28 33 15 18 1009.5 - 0.0
19/12:00pm 30.4 29.7 21.8 60 5.8 WSW 28 33 15 18 1009.7 1009.7 0.0
19/11:30am 29.6 28.5 21.8 63 5.3 SW 30 37 16 20 1009.8 - 0.0
19/11:00am 29.6 29.0 21.3 61 5.6 WSW 26 32 14 17 1010.1 - 0.0
19/10:30am 29.6 29.4 22.1 64 5.1 WSW 26 32 14 17 1010.2 - 0.0
19/10:00am 28.9 28.5 21.7 65 4.8 SW 26 32 14 17 1010.1 - 0.0
19/09:30am 28.8 28.3 22.1 67 4.5 SW 28 35 15 19 1010.0 - 0.0
19/09:00am 28.3 27.4 22.1 69 4.2 SW 30 39 16 21 1010.0 1010.0 0.0
19/08:30am 27.8 26.3 21.8 70 4.0 SW 32 43 17 23 1009.9 - 0.0
19/08:00am 27.4 26.6 21.7 71 3.8 SW 28 35 15 19 1009.6 - 0.0
19/07:30am 27.0 27.4 21.7 73 3.5 SW 22 35 12 19 1009.3 - 0.0
19/07:00am 26.6 27.3 21.6 74 3.3 SW 20 26 11 14 1008.8 - 0.0
19/06:30am 26.1 25.7 21.7 77 2.9 SW 26 33 14 18 1008.4 - 0.0
19/06:00am 26.1 25.5 22.0 78 2.7 SW 28 33 15 18 1008.5 1008.5 0.0
19/05:30am 26.1 25.7 22.4 80 2.5 SW 28 33 15 18 1008.4 - 0.0
19/05:00am 26.2 25.5 22.5 80 2.5 SW 30 33 16 18 1008.4 - 0.0
19/04:30am 26.2 26.0 22.7 81 2.4 SW 28 33 15 18 1008.5 - 0.0
19/04:00am 26.4 25.6 23.1 82 2.2 SW 32 35 17 19 1008.3 - 0.0
19/03:30am 26.2 25.4 23.1 83 2.1 SW 32 39 17 21 1008.0 - 0.0
19/03:00am 26.3 25.6 23.2 83 2.1 SW 32 41 17 22 1008.0 1008.0 0.0
19/02:30am 26.4 25.3 23.5 84 2.0 SW 35 41 19 22 1008.1 - 0.0
19/02:00am 26.5 25.8 23.6 84 2.0 SW 33 41 18 22 1008.4 - 0.0
19/01:30am 26.6 25.4 23.3 82 2.3 SW 35 43 19 23 1008.4 - 0.0
19/01:00am 26.8 25.9 23.1 80 2.5 SW 33 41 18 22 1008.5 - 0.0
19/12:30am 27.1 25.9 22.7 77 3.0 SW 33 41 18 22 1008.7 - 0.0
19/12:00am 27.2 25.9 22.4 75 3.2 WSW 33 41 18 22 1008.6 1008.6 0.0
 
Date/Time
WST
Temp
°C
App
Temp
°C
Dew
Point
°C
Rel
Hum
%
Delta-T
°C
Wind Press
QNH
hPa
Press
MSL
hPa
Rain since
9am
mm
Dir  Spd
km/h
Gust
km/h
Spd
kts
Gust
kts
18/11:30pm 27.3 25.9 22.3 74 3.4 WSW 33 41 18 22 1008.7 - 0.0
18/11:00pm 27.4 25.9 22.8 76 3.1 WSW 35 43 19 23 1008.9 - 0.0
18/10:30pm 27.3 26.4 22.9 77 3.0 WSW 32 37 17 20 1009.2 - 0.0
18/10:00pm 27.1 26.2 22.9 78 2.9 WSW 32 37 17 20 1009.1 - 0.0
18/09:30pm 27.0 26.5 22.8 78 2.8 WSW 30 37 16 20 1009.0 - 0.0
18/09:00pm 27.0 26.0 22.6 77 3.0 WSW 32 37 17 20 1008.6 1008.6 0.0
18/08:30pm 27.0 26.6 23.0 79 2.7 WSW 30 37 16 20 1008.5 - 0.0
18/08:00pm 26.9 26.2 23.2 80 2.5 W 32 39 17 21 1008.1 - 0.0
18/07:30pm 26.9 26.7 23.4 81 2.4 W 30 37 16 20 1007.8 - 0.0
18/07:00pm 27.3 26.7 23.3 79 2.7 W 32 43 17 23 1007.5 - 0.0
18/06:30pm 28.2 27.4 23.1 74 3.5 W 32 43 17 23 1007.2 - 0.0
18/06:00pm 28.9 27.8 22.9 70 4.1 W 33 43 18 23 1007.1 1007.1 0.0
18/05:30pm 29.7 28.6 22.9 67 4.6 WSW 33 41 18 22 1007.0 - 0.0
18/05:00pm 30.5 29.2 22.4 62 5.5 WSW 33 39 18 21 1006.9 - 0.0
18/04:30pm 30.7 29.3 22.3 61 5.7 WSW 33 41 18 22 1007.0 - 0.0
18/04:00pm 31.2 29.6 21.9 57 6.3 WSW 33 41 18 22 1007.1 - 0.0
18/03:30pm 31.6 29.3 21.2 54 7.0 WSW 35 43 19 23 1007.3 - 0.0
18/03:00pm 32.2 31.3 22.9 58 6.4 WSW 32 37 17 20 1007.6 1007.6 0.0
18/02:30pm 32.0 31.4 23.3 60 6.0 SW 32 39 17 21 1007.4 - 0.0
18/02:00pm 31.0 30.1 22.9 62 5.6 SW 32 37 17 20 1007.6 - 0.0
18/01:30pm 30.9 30.4 22.8 62 5.5 SW 30 37 16 20 1008.0 - 0.0
18/01:00pm 30.0 29.3 23.2 67 4.7 SW 32 39 17 21 1008.3 - 0.0
18/12:30pm 29.5 28.3 22.2 65 4.9 SW 32 37 17 20 1008.7 - 0.0
18/12:00pm 29.7 29.1 22.7 66 4.8 SW 30 35 16 19 1009.2 1009.2 0.0
18/11:30am 29.2 28.8 22.4 66 4.6 SW 28 35 15 19 1009.4 - 0.0
18/11:00am 28.7 28.3 22.4 68 4.3 SW 28 33 15 18 1009.4 - 0.0
18/10:30am 28.2 27.1 22.4 71 3.9 SW 32 35 17 19 1009.3 - 0.0
18/10:00am 28.1 26.9 22.3 70 3.9 SW 32 37 17 20 1009.5 - 0.0

Other formats

Comma delimited format used in spreadsheet applications
http://www.bom.gov.au/fwo/IDW60801/IDW60801.95304.axf

JavaScript Object Notation format (JSON) in row-major order
http://www.bom.gov.au/fwo/IDW60801/IDW60801.95304.json

Data quality

Most of these data are generated automatically and are frequently updated. Quality checks on data are not normally performed. It is possible for incorrect values to appear. Refer to information at About Latest Weather Observations and please check the disclaimer before using these data.